sensor_id;sensor_type;location;lat;lon;timestamp;P1;durP1;ratioP1;P2;durP2;ratioP2
22907;SDS011;11620;50.050;8.690;2023-06-19T00:01:35;0.38;;;0.38;;
22907;SDS011;11620;50.050;8.690;2023-06-19T00:04:21;0.40;;;0.40;;
22907;SDS011;11620;50.050;8.690;2023-06-19T00:07:08;0.20;;;0.20;;
22907;SDS011;11620;50.050;8.690;2023-06-19T00:09:54;0.30;;;0.30;;
22907;SDS011;11620;50.050;8.690;2023-06-19T00:12:40;0.40;;;0.40;;
22907;SDS011;11620;50.050;8.690;2023-06-19T00:15:27;0.30;;;0.30;;
22907;SDS011;11620;50.050;8.690;2023-06-19T00:18:15;0.38;;;0.38;;
22907;SDS011;11620;50.050;8.690;2023-06-19T00:21:02;0.30;;;0.30;;
22907;SDS011;11620;50.050;8.690;2023-06-19T00:23:51;0.30;;;0.30;;
22907;SDS011;11620;50.050;8.690;2023-06-19T00:26:38;0.30;;;0.30;;
22907;SDS011;11620;50.050;8.690;2023-06-19T00:29:25;0.30;;;0.30;;
22907;SDS011;11620;50.050;8.690;2023-06-19T00:32:13;0.30;;;0.30;;
22907;SDS011;11620;50.050;8.690;2023-06-19T00:35:00;0.20;;;0.20;;
22907;SDS011;11620;50.050;8.690;2023-06-19T00:37:46;0.40;;;0.40;;
22907;SDS011;11620;50.050;8.690;2023-06-19T00:40:33;0.30;;;0.30;;
22907;SDS011;11620;50.050;8.690;2023-06-19T00:43:19;0.30;;;0.30;;
22907;SDS011;11620;50.050;8.690;2023-06-19T00:46:06;0.28;;;0.28;;
22907;SDS011;11620;50.050;8.690;2023-06-19T00:48:52;0.30;;;0.30;;
22907;SDS011;11620;50.050;8.690;2023-06-19T00:51:39;0.30;;;0.30;;
22907;SDS011;11620;50.050;8.690;2023-06-19T00:54:26;0.38;;;0.38;;
22907;SDS011;11620;50.050;8.690;2023-06-19T00:57:12;0.40;;;0.40;;
22907;SDS011;11620;50.050;8.690;2023-06-19T00:59:58;0.30;;;0.30;;
22907;SDS011;11620;50.050;8.690;2023-06-19T01:02:45;0.30;;;0.30;;
22907;SDS011;11620;50.050;8.690;2023-06-19T01:05:32;0.20;;;0.20;;
22907;SDS011;11620;50.050;8.690;2023-06-19T01:11:18;0.30;;;0.30;;
22907;SDS011;11620;50.050;8.690;2023-06-19T01:14:10;0.20;;;0.20;;
22907;SDS011;11620;50.050;8.690;2023-06-19T01:17:02;0.30;;;0.30;;
22907;SDS011;11620;50.050;8.690;2023-06-19T01:19:49;0.30;;;0.30;;
22907;SDS011;11620;50.050;8.690;2023-06-19T01:22:36;0.30;;;0.30;;
22907;SDS011;11620;50.050;8.690;2023-06-19T01:25:23;0.30;;;0.30;;
22907;SDS011;11620;50.050;8.690;2023-06-19T01:28:10;0.28;;;0.28;;
22907;SDS011;11620;50.050;8.690;2023-06-19T01:30:57;0.30;;;0.30;;
22907;SDS011;11620;50.050;8.690;2023-06-19T01:33:47;0.40;;;0.40;;
22907;SDS011;11620;50.050;8.690;2023-06-19T01:36:37;0.30;;;0.30;;
22907;SDS011;11620;50.050;8.690;2023-06-19T01:39:24;0.30;;;0.30;;
22907;SDS011;11620;50.050;8.690;2023-06-19T01:42:13;0.30;;;0.30;;
22907;SDS011;11620;50.050;8.690;2023-06-19T01:45:01;0.30;;;0.30;;
22907;SDS011;11620;50.050;8.690;2023-06-19T01:47:48;0.30;;;0.30;;
22907;SDS011;11620;50.050;8.690;2023-06-19T01:50:35;0.30;;;0.30;;
22907;SDS011;11620;50.050;8.690;2023-06-19T01:53:21;0.30;;;0.30;;
22907;SDS011;11620;50.050;8.690;2023-06-19T01:56:07;0.40;;;0.40;;
22907;SDS011;11620;50.050;8.690;2023-06-19T01:58:54;0.40;;;0.40;;
22907;SDS011;11620;50.050;8.690;2023-06-19T02:01:41;0.35;;;0.35;;
22907;SDS011;11620;50.050;8.690;2023-06-19T02:04:27;0.30;;;0.30;;
22907;SDS011;11620;50.050;8.690;2023-06-19T02:07:14;0.30;;;0.30;;
22907;SDS011;11620;50.050;8.690;2023-06-19T02:10:00;0.40;;;0.40;;
22907;SDS011;11620;50.050;8.690;2023-06-19T02:12:46;0.40;;;0.40;;
22907;SDS011;11620;50.050;8.690;2023-06-19T02:15:33;0.40;;;0.40;;
22907;SDS011;11620;50.050;8.690;2023-06-19T02:18:19;0.30;;;0.30;;
22907;SDS011;11620;50.050;8.690;2023-06-19T02:21:05;0.30;;;0.30;;
22907;SDS011;11620;50.050;8.690;2023-06-19T02:23:51;0.32;;;0.32;;
22907;SDS011;11620;50.050;8.690;2023-06-19T02:26:38;0.20;;;0.20;;
22907;SDS011;11620;50.050;8.690;2023-06-19T02:29:25;0.40;;;0.40;;
22907;SDS011;11620;50.050;8.690;2023-06-19T02:32:11;0.28;;;0.28;;
22907;SDS011;11620;50.050;8.690;2023-06-19T02:34:57;0.30;;;0.30;;
22907;SDS011;11620;50.050;8.690;2023-06-19T02:37:44;0.30;;;0.30;;
22907;SDS011;11620;50.050;8.690;2023-06-19T02:40:32;0.40;;;0.40;;
22907;SDS011;11620;50.050;8.690;2023-06-19T02:43:18;0.30;;;0.30;;
22907;SDS011;11620;50.050;8.690;2023-06-19T02:46:04;0.40;;;0.40;;
22907;SDS011;11620;50.050;8.690;2023-06-19T02:48:51;0.35;;;0.35;;
22907;SDS011;11620;50.050;8.690;2023-06-19T02:51:37;0.50;;;0.50;;
22907;SDS011;11620;50.050;8.690;2023-06-19T02:54:23;0.20;;;0.20;;
22907;SDS011;11620;50.050;8.690;2023-06-19T02:57:09;0.30;;;0.30;;
22907;SDS011;11620;50.050;8.690;2023-06-19T02:59:56;0.30;;;0.30;;
22907;SDS011;11620;50.050;8.690;2023-06-19T03:02:42;0.30;;;0.30;;
22907;SDS011;11620;50.050;8.690;2023-06-19T03:05:29;0.35;;;0.35;;
22907;SDS011;11620;50.050;8.690;2023-06-19T03:08:16;0.40;;;0.40;;
22907;SDS011;11620;50.050;8.690;2023-06-19T03:11:03;0.30;;;0.30;;
22907;SDS011;11620;50.050;8.690;2023-06-19T03:13:51;0.30;;;0.30;;
22907;SDS011;11620;50.050;8.690;2023-06-19T03:16:38;0.30;;;0.30;;
22907;SDS011;11620;50.050;8.690;2023-06-19T03:19:25;0.30;;;0.30;;
22907;SDS011;11620;50.050;8.690;2023-06-19T03:22:11;0.30;;;0.30;;
22907;SDS011;11620;50.050;8.690;2023-06-19T03:24:57;0.32;;;0.32;;
22907;SDS011;11620;50.050;8.690;2023-06-19T03:27:44;0.40;;;0.40;;
22907;SDS011;11620;50.050;8.690;2023-06-19T03:30:30;0.30;;;0.30;;
22907;SDS011;11620;50.050;8.690;2023-06-19T03:33:16;0.30;;;0.30;;
22907;SDS011;11620;50.050;8.690;2023-06-19T03:36:03;0.30;;;0.30;;
22907;SDS011;11620;50.050;8.690;2023-06-19T03:38:49;0.35;;;0.35;;
22907;SDS011;11620;50.050;8.690;2023-06-19T03:41:36;0.40;;;0.40;;
22907;SDS011;11620;50.050;8.690;2023-06-19T03:44:22;0.40;;;0.40;;
22907;SDS011;11620;50.050;8.690;2023-06-19T03:47:08;0.30;;;0.30;;
22907;SDS011;11620;50.050;8.690;2023-06-19T03:49:55;0.40;;;0.40;;
22907;SDS011;11620;50.050;8.690;2023-06-19T03:52:41;0.40;;;0.40;;
22907;SDS011;11620;50.050;8.690;2023-06-19T03:55:27;0.30;;;0.30;;
22907;SDS011;11620;50.050;8.690;2023-06-19T03:58:14;0.40;;;0.40;;
22907;SDS011;11620;50.050;8.690;2023-06-19T04:01:00;0.43;;;0.43;;
22907;SDS011;11620;50.050;8.690;2023-06-19T04:03:46;0.25;;;0.25;;
22907;SDS011;11620;50.050;8.690;2023-06-19T04:06:33;0.50;;;0.50;;
22907;SDS011;11620;50.050;8.690;2023-06-19T04:09:19;0.40;;;0.40;;
22907;SDS011;11620;50.050;8.690;2023-06-19T04:12:06;0.43;;;0.43;;
22907;SDS011;11620;50.050;8.690;2023-06-19T04:14:52;0.40;;;0.40;;
22907;SDS011;11620;50.050;8.690;2023-06-19T04:17:39;0.40;;;0.40;;
22907;SDS011;11620;50.050;8.690;2023-06-19T04:20:25;0.32;;;0.32;;
22907;SDS011;11620;50.050;8.690;2023-06-19T04:23:12;0.30;;;0.30;;
22907;SDS011;11620;50.050;8.690;2023-06-19T04:25:58;0.43;;;0.43;;
22907;SDS011;11620;50.050;8.690;2023-06-19T04:28:44;0.40;;;0.40;;
22907;SDS011;11620;50.050;8.690;2023-06-19T04:31:31;0.38;;;0.38;;
22907;SDS011;11620;50.050;8.690;2023-06-19T04:34:18;0.30;;;0.30;;
22907;SDS011;11620;50.050;8.690;2023-06-19T04:37:07;0.30;;;0.30;;
22907;SDS011;11620;50.050;8.690;2023-06-19T04:39:56;0.40;;;0.40;;
22907;SDS011;11620;50.050;8.690;2023-06-19T04:42:43;0.30;;;0.30;;
22907;SDS011;11620;50.050;8.690;2023-06-19T04:45:29;0.40;;;0.40;;
22907;SDS011;11620;50.050;8.690;2023-06-19T04:48:15;0.50;;;0.50;;
22907;SDS011;11620;50.050;8.690;2023-06-19T04:51:02;0.40;;;0.40;;
22907;SDS011;11620;50.050;8.690;2023-06-19T04:53:48;0.40;;;0.40;;
22907;SDS011;11620;50.050;8.690;2023-06-19T04:56:35;0.40;;;0.40;;
22907;SDS011;11620;50.050;8.690;2023-06-19T04:59:21;0.40;;;0.40;;
22907;SDS011;11620;50.050;8.690;2023-06-19T05:02:07;0.30;;;0.30;;
22907;SDS011;11620;50.050;8.690;2023-06-19T05:04:54;0.47;;;0.47;;
22907;SDS011;11620;50.050;8.690;2023-06-19T05:07:40;0.40;;;0.40;;
22907;SDS011;11620;50.050;8.690;2023-06-19T05:10:26;0.40;;;0.40;;
22907;SDS011;11620;50.050;8.690;2023-06-19T05:13:13;0.30;;;0.30;;
22907;SDS011;11620;50.050;8.690;2023-06-19T05:15:59;0.50;;;0.50;;
22907;SDS011;11620;50.050;8.690;2023-06-19T05:18:45;0.47;;;0.47;;
22907;SDS011;11620;50.050;8.690;2023-06-19T05:21:32;0.47;;;0.47;;
22907;SDS011;11620;50.050;8.690;2023-06-19T05:24:18;0.45;;;0.45;;
22907;SDS011;11620;50.050;8.690;2023-06-19T05:27:04;0.43;;;0.43;;
22907;SDS011;11620;50.050;8.690;2023-06-19T05:29:51;0.43;;;0.43;;
22907;SDS011;11620;50.050;8.690;2023-06-19T05:32:37;0.40;;;0.40;;
22907;SDS011;11620;50.050;8.690;2023-06-19T05:35:24;0.40;;;0.40;;
22907;SDS011;11620;50.050;8.690;2023-06-19T05:38:11;0.38;;;0.38;;
22907;SDS011;11620;50.050;8.690;2023-06-19T05:40:57;0.40;;;0.40;;
22907;SDS011;11620;50.050;8.690;2023-06-19T05:43:44;0.38;;;0.38;;
22907;SDS011;11620;50.050;8.690;2023-06-19T05:46:30;0.40;;;0.40;;
22907;SDS011;11620;50.050;8.690;2023-06-19T05:49:17;0.50;;;0.50;;
22907;SDS011;11620;50.050;8.690;2023-06-19T05:52:03;0.50;;;0.50;;
22907;SDS011;11620;50.050;8.690;2023-06-19T05:54:50;0.47;;;0.47;;
22907;SDS011;11620;50.050;8.690;2023-06-19T05:57:37;0.60;;;0.60;;
22907;SDS011;11620;50.050;8.690;2023-06-19T06:00:24;0.40;;;0.40;;
22907;SDS011;11620;50.050;8.690;2023-06-19T06:03:10;0.50;;;0.50;;
22907;SDS011;11620;50.050;8.690;2023-06-19T06:05:57;0.40;;;0.40;;
22907;SDS011;11620;50.050;8.690;2023-06-19T06:08:48;0.45;;;0.45;;
22907;SDS011;11620;50.050;8.690;2023-06-19T06:11:36;0.60;;;0.60;;
22907;SDS011;11620;50.050;8.690;2023-06-19T06:14:23;0.60;;;0.60;;
22907;SDS011;11620;50.050;8.690;2023-06-19T06:17:09;0.50;;;0.50;;
22907;SDS011;11620;50.050;8.690;2023-06-19T06:19:55;0.52;;;0.52;;
22907;SDS011;11620;50.050;8.690;2023-06-19T06:22:42;0.60;;;0.60;;
22907;SDS011;11620;50.050;8.690;2023-06-19T06:25:28;0.60;;;0.60;;
22907;SDS011;11620;50.050;8.690;2023-06-19T06:28:15;0.73;;;0.73;;
22907;SDS011;11620;50.050;8.690;2023-06-19T06:31:01;0.60;;;0.60;;
22907;SDS011;11620;50.050;8.690;2023-06-19T06:33:48;0.50;;;0.50;;
22907;SDS011;11620;50.050;8.690;2023-06-19T06:36:34;0.60;;;0.60;;
22907;SDS011;11620;50.050;8.690;2023-06-19T06:39:20;0.60;;;0.60;;
22907;SDS011;11620;50.050;8.690;2023-06-19T06:42:07;0.70;;;0.70;;
22907;SDS011;11620;50.050;8.690;2023-06-19T06:44:53;0.70;;;0.70;;
22907;SDS011;11620;50.050;8.690;2023-06-19T06:47:39;0.70;;;0.70;;
22907;SDS011;11620;50.050;8.690;2023-06-19T06:50:26;0.70;;;0.70;;
22907;SDS011;11620;50.050;8.690;2023-06-19T06:53:12;0.57;;;0.57;;
22907;SDS011;11620;50.050;8.690;2023-06-19T06:55:58;0.47;;;0.47;;
22907;SDS011;11620;50.050;8.690;2023-06-19T06:58:45;0.60;;;0.60;;
22907;SDS011;11620;50.050;8.690;2023-06-19T07:01:32;0.70;;;0.70;;
22907;SDS011;11620;50.050;8.690;2023-06-19T07:04:19;0.57;;;0.57;;
22907;SDS011;11620;50.050;8.690;2023-06-19T07:07:05;0.60;;;0.60;;
22907;SDS011;11620;50.050;8.690;2023-06-19T07:09:52;0.70;;;0.70;;
22907;SDS011;11620;50.050;8.690;2023-06-19T07:12:45;0.47;;;0.47;;
22907;SDS011;11620;50.050;8.690;2023-06-19T07:15:35;0.50;;;0.50;;
22907;SDS011;11620;50.050;8.690;2023-06-19T07:18:21;0.60;;;0.60;;
22907;SDS011;11620;50.050;8.690;2023-06-19T07:21:11;0.68;;;0.68;;
22907;SDS011;11620;50.050;8.690;2023-06-19T07:24:00;0.60;;;0.60;;
22907;SDS011;11620;50.050;8.690;2023-06-19T07:26:47;0.60;;;0.60;;
22907;SDS011;11620;50.050;8.690;2023-06-19T07:29:34;0.40;;;0.40;;
22907;SDS011;11620;50.050;8.690;2023-06-19T07:32:20;0.50;;;0.50;;
22907;SDS011;11620;50.050;8.690;2023-06-19T07:35:06;0.47;;;0.47;;
22907;SDS011;11620;50.050;8.690;2023-06-19T07:37:53;0.50;;;0.50;;
22907;SDS011;11620;50.050;8.690;2023-06-19T07:40:39;0.70;;;0.70;;
22907;SDS011;11620;50.050;8.690;2023-06-19T07:43:26;0.70;;;0.70;;
22907;SDS011;11620;50.050;8.690;2023-06-19T07:46:12;0.50;;;0.50;;
22907;SDS011;11620;50.050;8.690;2023-06-19T07:48:58;0.65;;;0.65;;
22907;SDS011;11620;50.050;8.690;2023-06-19T07:51:45;0.50;;;0.50;;
22907;SDS011;11620;50.050;8.690;2023-06-19T07:54:33;0.60;;;0.60;;
22907;SDS011;11620;50.050;8.690;2023-06-19T07:57:20;0.65;;;0.65;;
22907;SDS011;11620;50.050;8.690;2023-06-19T08:00:07;0.70;;;0.70;;
22907;SDS011;11620;50.050;8.690;2023-06-19T08:02:56;0.60;;;0.60;;
22907;SDS011;11620;50.050;8.690;2023-06-19T08:05:43;0.70;;;0.70;;
22907;SDS011;11620;50.050;8.690;2023-06-19T08:08:29;0.70;;;0.70;;
22907;SDS011;11620;50.050;8.690;2023-06-19T08:11:15;0.50;;;0.50;;
22907;SDS011;11620;50.050;8.690;2023-06-19T08:14:02;0.70;;;0.70;;
22907;SDS011;11620;50.050;8.690;2023-06-19T08:16:48;0.70;;;0.70;;
22907;SDS011;11620;50.050;8.690;2023-06-19T08:19:34;0.60;;;0.60;;
22907;SDS011;11620;50.050;8.690;2023-06-19T08:22:21;0.60;;;0.60;;
22907;SDS011;11620;50.050;8.690;2023-06-19T08:25:07;0.60;;;0.60;;
22907;SDS011;11620;50.050;8.690;2023-06-19T08:27:54;0.70;;;0.70;;
22907;SDS011;11620;50.050;8.690;2023-06-19T08:30:40;0.63;;;0.63;;
22907;SDS011;11620;50.050;8.690;2023-06-19T08:33:26;0.70;;;0.70;;
22907;SDS011;11620;50.050;8.690;2023-06-19T08:36:13;0.70;;;0.70;;
22907;SDS011;11620;50.050;8.690;2023-06-19T08:38:59;0.60;;;0.60;;
22907;SDS011;11620;50.050;8.690;2023-06-19T08:41:46;0.80;;;0.80;;
22907;SDS011;11620;50.050;8.690;2023-06-19T08:44:33;0.73;;;0.73;;
22907;SDS011;11620;50.050;8.690;2023-06-19T08:47:20;0.60;;;0.60;;
22907;SDS011;11620;50.050;8.690;2023-06-19T08:50:07;0.60;;;0.60;;
22907;SDS011;11620;50.050;8.690;2023-06-19T08:52:54;0.80;;;0.80;;
22907;SDS011;11620;50.050;8.690;2023-06-19T08:55:41;0.63;;;0.63;;
22907;SDS011;11620;50.050;8.690;2023-06-19T08:58:27;0.68;;;0.68;;
22907;SDS011;11620;50.050;8.690;2023-06-19T09:01:16;0.75;;;0.75;;
22907;SDS011;11620;50.050;8.690;2023-06-19T09:04:10;0.65;;;0.65;;
22907;SDS011;11620;50.050;8.690;2023-06-19T09:06:58;0.60;;;0.60;;
22907;SDS011;11620;50.050;8.690;2023-06-19T09:09:46;0.68;;;0.68;;
22907;SDS011;11620;50.050;8.690;2023-06-19T09:12:32;0.60;;;0.60;;
22907;SDS011;11620;50.050;8.690;2023-06-19T09:15:19;0.50;;;0.50;;
22907;SDS011;11620;50.050;8.690;2023-06-19T09:18:06;0.60;;;0.60;;
22907;SDS011;11620;50.050;8.690;2023-06-19T09:20:54;0.70;;;0.70;;
22907;SDS011;11620;50.050;8.690;2023-06-19T09:23:40;0.70;;;0.70;;
22907;SDS011;11620;50.050;8.690;2023-06-19T09:26:27;0.70;;;0.70;;
22907;SDS011;11620;50.050;8.690;2023-06-19T09:29:13;0.60;;;0.60;;
22907;SDS011;11620;50.050;8.690;2023-06-19T09:35:07;0.70;;;0.70;;
22907;SDS011;11620;50.050;8.690;2023-06-19T09:37:53;0.50;;;0.50;;
22907;SDS011;11620;50.050;8.690;2023-06-19T09:40:41;0.55;;;0.55;;
22907;SDS011;11620;50.050;8.690;2023-06-19T09:43:43;0.70;;;0.70;;
22907;SDS011;11620;50.050;8.690;2023-06-19T09:46:32;0.40;;;0.40;;
22907;SDS011;11620;50.050;8.690;2023-06-19T09:49:21;0.45;;;0.45;;
22907;SDS011;11620;50.050;8.690;2023-06-19T09:52:11;0.70;;;0.70;;
22907;SDS011;11620;50.050;8.690;2023-06-19T09:54:57;0.60;;;0.60;;
22907;SDS011;11620;50.050;8.690;2023-06-19T09:57:48;0.60;;;0.60;;
22907;SDS011;11620;50.050;8.690;2023-06-19T10:00:35;0.60;;;0.60;;
22907;SDS011;11620;50.050;8.690;2023-06-19T10:03:29;0.70;;;0.70;;
22907;SDS011;11620;50.050;8.690;2023-06-19T10:06:17;0.50;;;0.50;;
22907;SDS011;11620;50.050;8.690;2023-06-19T10:09:06;0.63;;;0.63;;
22907;SDS011;11620;50.050;8.690;2023-06-19T10:11:55;0.50;;;0.50;;
22907;SDS011;11620;50.050;8.690;2023-06-19T10:14:46;0.60;;;0.60;;
22907;SDS011;11620;50.050;8.690;2023-06-19T10:17:34;0.60;;;0.60;;
22907;SDS011;11620;50.050;8.690;2023-06-19T10:23:20;0.40;;;0.40;;
22907;SDS011;11620;50.050;8.690;2023-06-19T10:26:08;0.50;;;0.50;;
22907;SDS011;11620;50.050;8.690;2023-06-19T10:29:02;0.50;;;0.50;;
22907;SDS011;11620;50.050;8.690;2023-06-19T10:32:00;0.30;;;0.30;;
22907;SDS011;11620;50.050;8.690;2023-06-19T10:34:46;0.45;;;0.45;;
22907;SDS011;11620;50.050;8.690;2023-06-19T10:37:34;0.40;;;0.40;;
22907;SDS011;11620;50.050;8.690;2023-06-19T10:40:21;0.40;;;0.40;;
22907;SDS011;11620;50.050;8.690;2023-06-19T10:43:07;0.40;;;0.40;;
22907;SDS011;11620;50.050;8.690;2023-06-19T10:45:53;0.40;;;0.40;;
22907;SDS011;11620;50.050;8.690;2023-06-19T10:48:40;0.40;;;0.40;;
22907;SDS011;11620;50.050;8.690;2023-06-19T10:51:26;0.43;;;0.43;;
22907;SDS011;11620;50.050;8.690;2023-06-19T10:54:14;0.40;;;0.40;;
22907;SDS011;11620;50.050;8.690;2023-06-19T10:57:03;0.43;;;0.43;;
22907;SDS011;11620;50.050;8.690;2023-06-19T10:59:50;0.30;;;0.30;;
22907;SDS011;11620;50.050;8.690;2023-06-19T11:02:38;0.40;;;0.40;;
22907;SDS011;11620;50.050;8.690;2023-06-19T11:05:29;0.43;;;0.43;;
22907;SDS011;11620;50.050;8.690;2023-06-19T11:08:18;0.47;;;0.47;;
22907;SDS011;11620;50.050;8.690;2023-06-19T11:11:06;0.40;;;0.40;;
22907;SDS011;11620;50.050;8.690;2023-06-19T11:13:53;0.60;;;0.60;;
22907;SDS011;11620;50.050;8.690;2023-06-19T11:16:40;0.60;;;0.60;;
22907;SDS011;11620;50.050;8.690;2023-06-19T11:19:29;0.50;;;0.50;;
22907;SDS011;11620;50.050;8.690;2023-06-19T11:22:16;0.43;;;0.43;;
22907;SDS011;11620;50.050;8.690;2023-06-19T11:25:03;0.50;;;0.50;;
22907;SDS011;11620;50.050;8.690;2023-06-19T11:27:50;0.52;;;0.52;;
22907;SDS011;11620;50.050;8.690;2023-06-19T11:30:37;0.40;;;0.40;;
22907;SDS011;11620;50.050;8.690;2023-06-19T11:33:24;0.50;;;0.50;;
22907;SDS011;11620;50.050;8.690;2023-06-19T11:36:10;0.40;;;0.40;;
22907;SDS011;11620;50.050;8.690;2023-06-19T11:38:57;0.50;;;0.50;;
22907;SDS011;11620;50.050;8.690;2023-06-19T11:41:43;0.40;;;0.40;;
22907;SDS011;11620;50.050;8.690;2023-06-19T11:44:30;0.40;;;0.40;;
22907;SDS011;11620;50.050;8.690;2023-06-19T11:47:17;0.60;;;0.60;;
22907;SDS011;11620;50.050;8.690;2023-06-19T11:50:04;0.50;;;0.50;;
22907;SDS011;11620;50.050;8.690;2023-06-19T11:52:52;0.43;;;0.43;;
22907;SDS011;11620;50.050;8.690;2023-06-19T11:55:38;0.50;;;0.50;;
22907;SDS011;11620;50.050;8.690;2023-06-19T11:58:25;0.50;;;0.50;;
22907;SDS011;11620;50.050;8.690;2023-06-19T12:01:11;0.50;;;0.50;;
22907;SDS011;11620;50.050;8.690;2023-06-19T12:03:57;0.40;;;0.40;;
22907;SDS011;11620;50.050;8.690;2023-06-19T12:06:44;0.40;;;0.40;;
22907;SDS011;11620;50.050;8.690;2023-06-19T12:09:30;0.40;;;0.40;;
22907;SDS011;11620;50.050;8.690;2023-06-19T12:12:20;0.40;;;0.40;;
22907;SDS011;11620;50.050;8.690;2023-06-19T12:15:06;0.60;;;0.60;;
22907;SDS011;11620;50.050;8.690;2023-06-19T12:17:53;0.40;;;0.40;;
22907;SDS011;11620;50.050;8.690;2023-06-19T12:20:39;0.57;;;0.57;;
22907;SDS011;11620;50.050;8.690;2023-06-19T12:23:26;0.50;;;0.50;;
22907;SDS011;11620;50.050;8.690;2023-06-19T12:26:12;0.40;;;0.40;;
22907;SDS011;11620;50.050;8.690;2023-06-19T12:28:58;0.40;;;0.40;;
22907;SDS011;11620;50.050;8.690;2023-06-19T12:31:45;0.50;;;0.50;;
22907;SDS011;11620;50.050;8.690;2023-06-19T12:34:31;0.43;;;0.43;;
22907;SDS011;11620;50.050;8.690;2023-06-19T12:37:17;0.40;;;0.40;;
22907;SDS011;11620;50.050;8.690;2023-06-19T12:40:04;0.43;;;0.43;;
22907;SDS011;11620;50.050;8.690;2023-06-19T12:42:54;0.50;;;0.50;;
22907;SDS011;11620;50.050;8.690;2023-06-19T12:45:40;0.40;;;0.40;;
22907;SDS011;11620;50.050;8.690;2023-06-19T12:48:27;0.40;;;0.40;;
22907;SDS011;11620;50.050;8.690;2023-06-19T12:51:14;0.43;;;0.43;;
22907;SDS011;11620;50.050;8.690;2023-06-19T12:54:00;0.40;;;0.40;;
22907;SDS011;11620;50.050;8.690;2023-06-19T12:56:46;0.40;;;0.40;;
22907;SDS011;11620;50.050;8.690;2023-06-19T12:59:33;0.20;;;0.20;;
22907;SDS011;11620;50.050;8.690;2023-06-19T13:02:19;0.50;;;0.50;;
22907;SDS011;11620;50.050;8.690;2023-06-19T13:05:06;0.40;;;0.40;;
22907;SDS011;11620;50.050;8.690;2023-06-19T13:07:52;0.30;;;0.30;;
22907;SDS011;11620;50.050;8.690;2023-06-19T13:10:39;0.40;;;0.40;;
22907;SDS011;11620;50.050;8.690;2023-06-19T13:13:26;0.43;;;0.43;;
22907;SDS011;11620;50.050;8.690;2023-06-19T13:16:12;0.40;;;0.40;;
22907;SDS011;11620;50.050;8.690;2023-06-19T13:18:58;0.43;;;0.43;;
22907;SDS011;11620;50.050;8.690;2023-06-19T13:21:45;0.50;;;0.50;;
22907;SDS011;11620;50.050;8.690;2023-06-19T13:24:31;0.60;;;0.60;;
22907;SDS011;11620;50.050;8.690;2023-06-19T13:27:18;0.40;;;0.40;;
22907;SDS011;11620;50.050;8.690;2023-06-19T13:30:04;0.40;;;0.40;;
22907;SDS011;11620;50.050;8.690;2023-06-19T13:32:58;0.40;;;0.40;;
22907;SDS011;11620;50.050;8.690;2023-06-19T13:35:45;0.40;;;0.40;;
22907;SDS011;11620;50.050;8.690;2023-06-19T13:38:32;0.40;;;0.40;;
22907;SDS011;11620;50.050;8.690;2023-06-19T13:41:21;0.40;;;0.40;;
22907;SDS011;11620;50.050;8.690;2023-06-19T13:44:09;0.40;;;0.40;;
22907;SDS011;11620;50.050;8.690;2023-06-19T13:46:55;0.30;;;0.30;;
22907;SDS011;11620;50.050;8.690;2023-06-19T13:49:42;0.40;;;0.40;;
22907;SDS011;11620;50.050;8.690;2023-06-19T13:52:28;0.50;;;0.50;;
22907;SDS011;11620;50.050;8.690;2023-06-19T13:55:14;0.30;;;0.30;;
22907;SDS011;11620;50.050;8.690;2023-06-19T13:58:01;0.30;;;0.30;;
22907;SDS011;11620;50.050;8.690;2023-06-19T14:00:48;0.40;;;0.40;;
22907;SDS011;11620;50.050;8.690;2023-06-19T14:03:36;0.40;;;0.40;;
22907;SDS011;11620;50.050;8.690;2023-06-19T14:06:24;0.40;;;0.40;;
22907;SDS011;11620;50.050;8.690;2023-06-19T14:09:11;0.40;;;0.40;;
22907;SDS011;11620;50.050;8.690;2023-06-19T14:11:58;0.40;;;0.40;;
22907;SDS011;11620;50.050;8.690;2023-06-19T14:14:45;0.45;;;0.45;;
22907;SDS011;11620;50.050;8.690;2023-06-19T14:17:32;0.40;;;0.40;;
22907;SDS011;11620;50.050;8.690;2023-06-19T14:20:18;0.30;;;0.30;;
22907;SDS011;11620;50.050;8.690;2023-06-19T14:23:04;0.40;;;0.40;;
22907;SDS011;11620;50.050;8.690;2023-06-19T14:25:51;0.43;;;0.43;;
22907;SDS011;11620;50.050;8.690;2023-06-19T14:28:37;0.40;;;0.40;;
22907;SDS011;11620;50.050;8.690;2023-06-19T14:31:23;0.40;;;0.40;;
22907;SDS011;11620;50.050;8.690;2023-06-19T14:34:08;0.30;;;0.30;;
22907;SDS011;11620;50.050;8.690;2023-06-19T14:36:54;0.30;;;0.30;;
22907;SDS011;11620;50.050;8.690;2023-06-19T14:39:41;0.50;;;0.50;;
22907;SDS011;11620;50.050;8.690;2023-06-19T14:42:27;0.35;;;0.35;;
22907;SDS011;11620;50.050;8.690;2023-06-19T14:45:13;0.40;;;0.40;;
22907;SDS011;11620;50.050;8.690;2023-06-19T14:48:00;0.50;;;0.50;;
22907;SDS011;11620;50.050;8.690;2023-06-19T14:50:46;0.30;;;0.30;;
22907;SDS011;11620;50.050;8.690;2023-06-19T14:53:32;0.40;;;0.40;;
22907;SDS011;11620;50.050;8.690;2023-06-19T14:56:19;0.43;;;0.43;;
22907;SDS011;11620;50.050;8.690;2023-06-19T14:59:05;0.40;;;0.40;;
22907;SDS011;11620;50.050;8.690;2023-06-19T15:01:51;0.40;;;0.40;;
22907;SDS011;11620;50.050;8.690;2023-06-19T15:04:37;0.50;;;0.50;;
22907;SDS011;11620;50.050;8.690;2023-06-19T15:07:25;0.50;;;0.50;;
22907;SDS011;11620;50.050;8.690;2023-06-19T15:10:11;0.30;;;0.30;;
22907;SDS011;11620;50.050;8.690;2023-06-19T15:12:57;0.30;;;0.30;;
22907;SDS011;11620;50.050;8.690;2023-06-19T15:15:44;0.40;;;0.40;;
22907;SDS011;11620;50.050;8.690;2023-06-19T15:18:31;0.30;;;0.30;;
22907;SDS011;11620;50.050;8.690;2023-06-19T15:21:17;0.50;;;0.50;;
22907;SDS011;11620;50.050;8.690;2023-06-19T15:24:04;0.45;;;0.45;;
22907;SDS011;11620;50.050;8.690;2023-06-19T15:26:50;0.30;;;0.30;;
22907;SDS011;11620;50.050;8.690;2023-06-19T15:29:37;0.30;;;0.30;;
22907;SDS011;11620;50.050;8.690;2023-06-19T15:32:24;0.30;;;0.30;;
22907;SDS011;11620;50.050;8.690;2023-06-19T15:35:10;0.32;;;0.32;;
22907;SDS011;11620;50.050;8.690;2023-06-19T15:37:57;0.40;;;0.40;;
22907;SDS011;11620;50.050;8.690;2023-06-19T15:40:44;0.30;;;0.30;;
22907;SDS011;11620;50.050;8.690;2023-06-19T15:43:30;0.40;;;0.40;;
22907;SDS011;11620;50.050;8.690;2023-06-19T15:46:17;0.40;;;0.40;;
22907;SDS011;11620;50.050;8.690;2023-06-19T15:49:03;0.38;;;0.38;;
22907;SDS011;11620;50.050;8.690;2023-06-19T15:51:49;0.32;;;0.32;;
22907;SDS011;11620;50.050;8.690;2023-06-19T15:54:36;0.40;;;0.40;;
22907;SDS011;11620;50.050;8.690;2023-06-19T15:57:23;0.40;;;0.40;;
22907;SDS011;11620;50.050;8.690;2023-06-19T16:00:10;0.40;;;0.40;;
22907;SDS011;11620;50.050;8.690;2023-06-19T16:02:58;0.40;;;0.40;;
22907;SDS011;11620;50.050;8.690;2023-06-19T16:05:44;0.47;;;0.47;;
22907;SDS011;11620;50.050;8.690;2023-06-19T16:08:34;0.57;;;0.57;;
22907;SDS011;11620;50.050;8.690;2023-06-19T16:11:20;0.40;;;0.40;;
22907;SDS011;11620;50.050;8.690;2023-06-19T16:14:06;0.30;;;0.30;;
22907;SDS011;11620;50.050;8.690;2023-06-19T16:16:53;0.40;;;0.40;;
22907;SDS011;11620;50.050;8.690;2023-06-19T16:19:39;0.32;;;0.32;;
22907;SDS011;11620;50.050;8.690;2023-06-19T16:22:26;0.30;;;0.30;;
22907;SDS011;11620;50.050;8.690;2023-06-19T16:25:12;0.32;;;0.32;;
22907;SDS011;11620;50.050;8.690;2023-06-19T16:27:59;0.30;;;0.30;;
22907;SDS011;11620;50.050;8.690;2023-06-19T16:30:45;0.60;;;0.60;;
22907;SDS011;11620;50.050;8.690;2023-06-19T16:33:32;0.30;;;0.30;;
22907;SDS011;11620;50.050;8.690;2023-06-19T16:36:18;0.50;;;0.50;;
22907;SDS011;11620;50.050;8.690;2023-06-19T16:39:05;0.40;;;0.40;;
22907;SDS011;11620;50.050;8.690;2023-06-19T16:41:53;0.40;;;0.40;;
22907;SDS011;11620;50.050;8.690;2023-06-19T16:44:39;0.32;;;0.32;;
22907;SDS011;11620;50.050;8.690;2023-06-19T16:47:26;0.38;;;0.38;;
22907;SDS011;11620;50.050;8.690;2023-06-19T16:50:12;0.40;;;0.40;;
22907;SDS011;11620;50.050;8.690;2023-06-19T16:52:59;0.30;;;0.30;;
22907;SDS011;11620;50.050;8.690;2023-06-19T16:55:48;0.30;;;0.30;;